createdAt,value
2018-02-18T00:01:11.382Z,1.42
2018-02-18T00:03:39.810Z,1.29
2018-02-18T00:06:08.278Z,1.27
2018-02-18T00:08:36.698Z,1.22
2018-02-18T00:11:05.112Z,1.21
2018-02-18T00:13:33.606Z,1.27
2018-02-18T00:16:02.060Z,1.23
2018-02-18T00:18:30.489Z,1.30
2018-02-18T00:20:58.947Z,1.30
2018-02-18T00:23:27.376Z,1.26
2018-02-18T00:25:55.786Z,1.15
2018-02-18T00:28:24.247Z,1.08
2018-02-18T00:30:52.660Z,0.98
2018-02-18T00:33:21.085Z,1.01
2018-02-18T00:35:49.553Z,0.93
2018-02-18T00:38:17.984Z,0.90
2018-02-18T00:40:46.420Z,0.91
2018-02-18T00:43:14.886Z,0.81
2018-02-18T00:45:43.316Z,0.85
2018-02-18T00:48:11.740Z,0.81
2018-02-18T00:50:40.217Z,0.76
2018-02-18T00:53:08.663Z,0.76
2018-02-18T00:55:37.075Z,0.78
2018-02-18T00:58:05.529Z,0.72
2018-02-18T01:00:33.961Z,0.69
2018-02-18T01:03:02.373Z,0.65
2018-02-18T01:05:30.841Z,0.65
2018-02-18T01:07:59.288Z,0.65
2018-02-18T01:10:27.715Z,0.66
2018-02-18T01:12:56.180Z,0.66
2018-02-18T01:15:24.586Z,0.60
2018-02-18T01:17:53.003Z,0.59
2018-02-18T01:20:21.473Z,0.60
2018-02-18T01:22:49.915Z,0.54
2018-02-18T01:25:18.331Z,0.47
2018-02-18T01:27:46.804Z,0.47
2018-02-18T01:30:15.219Z,0.41
2018-02-18T01:32:43.629Z,0.41
2018-02-18T01:35:12.089Z,0.39
2018-02-18T01:37:40.528Z,0.44
2018-02-18T01:40:08.955Z,0.43
2018-02-18T01:42:37.427Z,0.44
2018-02-18T01:45:05.852Z,0.46
2018-02-18T01:47:34.266Z,0.47
2018-02-18T01:50:14.641Z,0.47
2018-02-18T01:52:43.046Z,0.46
2018-02-18T01:55:11.458Z,0.38
2018-02-18T01:57:39.917Z,0.30
2018-02-18T02:00:08.359Z,0.35
2018-02-18T02:02:36.837Z,0.26
2018-02-18T02:05:05.314Z,0.28
2018-02-18T02:07:33.736Z,0.26
2018-02-18T02:10:02.152Z,0.29
2018-02-18T02:12:30.607Z,0.24
2018-02-18T02:14:59.026Z,0.20
2018-02-18T02:17:27.435Z,0.18
2018-02-18T02:19:56.089Z,0.24
2018-02-18T02:22:24.520Z,0.16
2018-02-18T02:24:52.943Z,0.12
2018-02-18T02:27:21.419Z,-0.03
2018-02-18T02:29:54.681Z,-0.05
2018-02-18T02:32:23.126Z,0.01
2018-02-18T02:34:51.565Z,-0.03
2018-02-18T02:37:20.012Z,-0.13
2018-02-18T02:39:48.508Z,-0.19
2018-02-18T02:42:16.943Z,-0.20
2018-02-18T02:44:45.369Z,-0.16
2018-02-18T02:47:13.838Z,-0.16
2018-02-18T02:49:42.254Z,-0.19
2018-02-18T02:52:10.721Z,-0.21
2018-02-18T02:54:39.588Z,-0.15
2018-02-18T02:57:08.041Z,-0.13
2018-02-18T02:59:36.454Z,-0.14
2018-02-18T03:02:04.913Z,-0.21
2018-02-18T03:04:33.340Z,-0.09
2018-02-18T03:07:01.773Z,-0.16
2018-02-18T03:09:30.259Z,-0.16
2018-02-18T03:11:58.674Z,-0.13
2018-02-18T03:14:27.085Z,-0.15
2018-02-18T03:16:55.549Z,-0.24
2018-02-18T03:19:23.984Z,-0.24
2018-02-18T03:21:52.398Z,-0.24
2018-02-18T03:24:20.900Z,-0.25
2018-02-18T03:26:49.314Z,-0.28
2018-02-18T03:29:17.739Z,-0.35
2018-02-18T03:31:46.215Z,-0.42
2018-02-18T03:34:14.630Z,-0.39
2018-02-18T03:36:43.056Z,-0.36
2018-02-18T03:39:11.514Z,-0.33
2018-02-18T03:41:39.944Z,-0.45
2018-02-18T03:44:08.370Z,-0.44
2018-02-18T03:46:36.833Z,-0.58
2018-02-18T03:49:05.249Z,-0.54
2018-02-18T03:51:33.686Z,-0.50
2018-02-18T03:54:02.146Z,-0.52
2018-02-18T03:56:30.568Z,-0.51
2018-02-18T03:58:59.001Z,-0.47
2018-02-18T04:01:27.459Z,-0.54
2018-02-18T04:03:55.884Z,-0.50
2018-02-18T04:06:24.297Z,-0.45
2018-02-18T04:08:52.764Z,-0.47
2018-02-18T04:11:21.205Z,-0.41
2018-02-18T04:13:49.626Z,-0.45
2018-02-18T04:16:18.077Z,-0.43
2018-02-18T04:18:46.494Z,-0.43
2018-02-18T04:21:14.924Z,-0.48
2018-02-18T04:23:43.405Z,-0.61
2018-02-18T04:26:11.821Z,-0.63
2018-02-18T04:28:40.238Z,-0.65
2018-02-18T04:31:08.885Z,-0.72
2018-02-18T04:33:37.312Z,-0.74
2018-02-18T04:36:05.740Z,-0.82
2018-02-18T04:38:34.212Z,-0.71
2018-02-18T04:41:02.630Z,-0.65
2018-02-18T04:43:31.062Z,-0.60
2018-02-18T04:45:59.526Z,-0.62
2018-02-18T04:48:27.960Z,-0.70
2018-02-18T04:50:56.393Z,-0.82
2018-02-18T04:53:24.863Z,-0.90
2018-02-18T04:55:53.292Z,-0.86
2018-02-18T04:58:21.724Z,-0.83
2018-02-18T05:00:50.188Z,-0.81
2018-02-18T05:03:18.605Z,-0.83
2018-02-18T05:05:47.033Z,-0.85
2018-02-18T05:08:15.497Z,-0.86
2018-02-18T05:10:43.917Z,-0.94
2018-02-18T05:13:12.353Z,-1.00
2018-02-18T05:15:40.822Z,-1.00
2018-02-18T05:18:09.238Z,-1.07
2018-02-18T05:20:37.646Z,-1.13
2018-02-18T05:23:06.095Z,-1.08
2018-02-18T05:25:34.528Z,-1.08
2018-02-18T05:28:02.943Z,-1.09
2018-02-18T05:30:31.409Z,-1.01
2018-02-18T05:32:59.845Z,-1.10
2018-02-18T05:35:28.277Z,-1.04
2018-02-18T05:37:56.776Z,-1.08
2018-02-18T05:40:25.211Z,-1.09
2018-02-18T05:42:53.625Z,-1.03
2018-02-18T05:45:22.073Z,-1.05
2018-02-18T05:47:50.501Z,-0.98
2018-02-18T05:50:18.918Z,-0.98
2018-02-18T05:52:47.374Z,-1.09
2018-02-18T05:55:15.785Z,-1.03
2018-02-18T05:57:44.216Z,-1.07
2018-02-18T06:00:12.689Z,-1.11
2018-02-18T06:02:41.101Z,-1.13
2018-02-18T06:05:09.532Z,-1.18
2018-02-18T06:07:37.988Z,-1.13
2018-02-18T06:10:06.421Z,-1.14
2018-02-18T06:12:34.841Z,-1.20
2018-02-18T06:15:03.302Z,-1.18
2018-02-18T06:17:31.736Z,-1.13
2018-02-18T06:20:00.176Z,-1.21
2018-02-18T06:22:28.648Z,-1.16
2018-02-18T06:24:57.089Z,-1.15
2018-02-18T06:27:25.516Z,-1.17
2018-02-18T06:29:53.987Z,-1.17
2018-02-18T06:32:22.401Z,-1.22
2018-02-18T06:34:50.822Z,-1.19
2018-02-18T06:37:19.289Z,-1.31
2018-02-18T06:39:47.724Z,-1.33
2018-02-18T06:42:16.148Z,-1.30
2018-02-18T06:44:44.637Z,-1.28
2018-02-18T06:47:13.060Z,-1.36
2018-02-18T06:49:41.496Z,-1.41
2018-02-18T06:52:09.950Z,-1.37
2018-02-18T06:54:38.370Z,-1.38
2018-02-18T06:57:06.786Z,-1.43
2018-02-18T06:59:35.234Z,-1.36
2018-02-18T07:02:03.652Z,-1.36
2018-02-18T07:04:32.062Z,-1.30
2018-02-18T07:07:00.530Z,-1.30
2018-02-18T07:09:28.954Z,-1.25
2018-02-18T07:11:57.374Z,-1.24
2018-02-18T07:14:25.840Z,-1.26
2018-02-18T07:16:54.261Z,-1.24
2018-02-18T07:19:22.674Z,-1.22
2018-02-18T07:21:51.170Z,-1.24
2018-02-18T07:24:19.604Z,-1.14
2018-02-18T07:26:48.019Z,-1.09
2018-02-18T07:29:16.485Z,-1.03
2018-02-18T07:31:44.902Z,-0.98
2018-02-18T07:34:13.317Z,-0.99
2018-02-18T07:36:41.768Z,-0.86
2018-02-18T07:39:10.196Z,-0.87
2018-02-18T07:41:38.632Z,-0.83
2018-02-18T07:44:07.117Z,-0.80
2018-02-18T07:46:35.537Z,-0.80
2018-02-18T07:49:03.945Z,-0.72
2018-02-18T07:51:32.398Z,-0.62
2018-02-18T07:54:00.828Z,-0.53
2018-02-18T07:56:29.264Z,-0.47
2018-02-18T07:58:57.971Z,-0.43
2018-02-18T08:01:26.410Z,-0.43
2018-02-18T08:03:54.843Z,-0.33
2018-02-18T08:06:23.319Z,-0.30
2018-02-18T08:08:51.763Z,-0.26
2018-02-18T08:11:20.178Z,-0.18
2018-02-18T08:13:48.662Z,-146.80
2018-02-18T08:16:17.098Z,-146.80
2018-02-18T08:18:45.546Z,-146.80
2018-02-18T08:21:14.035Z,-146.80
2018-02-18T08:23:42.471Z,0.31
2018-02-18T08:26:10.917Z,-146.80
2018-02-18T08:28:39.416Z,-146.80
2018-02-18T08:31:07.870Z,-146.80
2018-02-18T08:33:36.320Z,-146.80
2018-02-18T08:36:04.812Z,-146.80
2018-02-18T08:38:33.273Z,-146.80
2018-02-18T08:41:01.710Z,-146.80
2018-02-18T08:43:30.194Z,-146.80
2018-02-18T08:45:58.635Z,-146.80
2018-02-18T08:48:27.089Z,-146.80
2018-02-18T08:50:55.582Z,-146.80
2018-02-18T08:53:24.034Z,-146.80
2018-02-18T08:55:52.541Z,-146.80
2018-02-18T08:58:21.040Z,-146.80
2018-02-18T09:00:49.490Z,-146.80
2018-02-18T09:03:17.972Z,-146.80
2018-02-18T09:05:46.485Z,-146.80
2018-02-18T09:08:14.925Z,-146.80
2018-02-18T09:10:43.369Z,-146.80
2018-02-18T09:13:11.854Z,-146.80
2018-02-18T09:15:40.294Z,-146.80
2018-02-18T09:18:08.738Z,-146.80
2018-02-18T09:20:37.226Z,-146.80
2018-02-18T09:23:05.709Z,-146.80
2018-02-18T09:25:34.185Z,-146.80
2018-02-18T09:28:02.689Z,-146.80
2018-02-18T09:30:31.165Z,-146.80
2018-02-18T09:32:59.623Z,-146.80
2018-02-18T09:35:28.113Z,-146.80
2018-02-18T09:37:56.576Z,-146.80
2018-02-18T09:40:25.044Z,-146.80
2018-02-18T09:42:53.573Z,-146.80
2018-02-18T09:45:22.047Z,-146.80
2018-02-18T09:47:50.494Z,-146.80
2018-02-18T09:50:18.997Z,-146.80
2018-02-18T09:52:47.454Z,-146.80
2018-02-18T09:55:15.925Z,-146.80
2018-02-18T09:57:44.450Z,-146.80
2018-02-18T10:00:12.921Z,-146.80
2018-02-18T10:02:41.388Z,-146.80
2018-02-18T10:05:09.871Z,-146.80
2018-02-18T10:07:38.331Z,-146.80
2018-02-18T10:10:06.790Z,-146.80
2018-02-18T10:12:35.419Z,-146.80
2018-02-18T10:15:03.908Z,-146.80
2018-02-18T10:17:32.369Z,-146.80
2018-02-18T10:20:00.901Z,-146.80
2018-02-18T10:22:29.348Z,-146.80
2018-02-18T10:24:57.787Z,-146.80
2018-02-18T10:27:26.279Z,-146.80
2018-02-18T10:29:54.735Z,-146.80
2018-02-18T10:32:23.541Z,-146.80
2018-02-18T10:34:52.039Z,-146.80
2018-02-18T10:37:20.536Z,-146.80
2018-02-18T10:39:48.969Z,-146.80
2018-02-18T10:42:17.489Z,-146.80
2018-02-18T10:44:45.935Z,-146.80
2018-02-18T10:47:15.286Z,-146.80
2018-02-18T10:49:43.783Z,6.04
2018-02-18T10:52:12.209Z,5.97
2018-02-18T10:54:40.699Z,5.92
2018-02-18T10:57:09.171Z,6.01
2018-02-18T10:59:37.613Z,5.98
2018-02-18T11:02:06.057Z,5.97
2018-02-18T11:04:34.558Z,5.95
2018-02-18T11:07:03.039Z,6.07
2018-02-18T11:09:31.464Z,6.06
2018-02-18T11:11:59.930Z,5.81
2018-02-18T11:14:28.354Z,5.86
2018-02-18T11:16:56.776Z,5.85
2018-02-18T11:19:25.246Z,6.08
2018-02-18T11:21:53.662Z,6.15
2018-02-18T11:24:22.099Z,6.22
2018-02-18T11:26:50.572Z,6.33
2018-02-18T11:29:18.978Z,6.16
2018-02-18T11:31:47.407Z,6.32
2018-02-18T11:34:15.905Z,6.19
2018-02-18T11:36:44.334Z,6.14
2018-02-18T11:39:12.813Z,6.21
2018-02-18T11:41:41.296Z,6.38
2018-02-18T11:44:09.727Z,6.54
2018-02-18T11:46:39.047Z,6.61
2018-02-18T11:49:07.528Z,6.75
2018-02-18T11:51:35.975Z,6.66
2018-02-18T11:54:04.406Z,6.66
2018-02-18T11:56:32.890Z,6.69
2018-02-18T11:59:01.326Z,6.68
2018-02-18T12:01:29.757Z,6.65
2018-02-18T12:03:58.237Z,6.57
2018-02-18T12:06:26.692Z,6.63
2018-02-18T12:08:55.114Z,6.50
2018-02-18T12:11:23.583Z,6.75
2018-02-18T12:13:52.026Z,6.56
2018-02-18T12:16:20.502Z,6.79
2018-02-18T12:18:48.958Z,6.74
2018-02-18T12:21:17.397Z,6.75
2018-02-18T12:23:45.832Z,6.83
2018-02-18T12:26:14.343Z,6.94
2018-02-18T12:28:42.793Z,7.03
2018-02-18T12:31:11.214Z,7.30
2018-02-18T12:33:39.700Z,7.45
2018-02-18T12:36:08.113Z,7.04
2018-02-18T12:38:36.563Z,7.10
2018-02-18T12:41:05.029Z,7.20
2018-02-18T12:43:33.466Z,7.23
2018-02-18T12:46:01.916Z,7.03
2018-02-18T12:48:30.388Z,7.13
2018-02-18T12:50:58.867Z,7.33
2018-02-18T12:53:27.924Z,7.35
2018-02-18T12:55:56.416Z,7.19
2018-02-18T12:58:24.845Z,7.11
2018-02-18T13:00:53.274Z,7.09
2018-02-18T13:03:21.765Z,7.40
2018-02-18T13:05:50.212Z,7.48
2018-02-18T13:08:18.662Z,7.38
2018-02-18T13:10:47.228Z,7.52
2018-02-18T13:13:15.673Z,7.55
2018-02-18T13:15:44.097Z,7.36
2018-02-18T13:18:12.578Z,7.25
2018-02-18T13:20:41.013Z,7.24
2018-02-18T13:23:09.427Z,7.22
2018-02-18T13:25:37.895Z,7.14
2018-02-18T13:28:06.315Z,7.00
2018-02-18T13:30:34.760Z,6.96
2018-02-18T13:33:03.582Z,7.21
2018-02-18T13:35:32.013Z,7.19
2018-02-18T13:38:00.460Z,7.33
2018-02-18T13:40:28.945Z,7.25
2018-02-18T13:42:57.387Z,7.18
2018-02-18T13:45:25.806Z,7.08
2018-02-18T13:47:54.278Z,7.04
2018-02-18T13:50:22.739Z,7.25
2018-02-18T13:52:52.521Z,7.24
2018-02-18T13:55:20.983Z,7.07
2018-02-18T13:57:49.428Z,7.25
2018-02-18T14:00:17.851Z,7.30
2018-02-18T14:02:46.322Z,7.55
2018-02-18T14:05:14.743Z,7.54
2018-02-18T14:07:43.244Z,7.64
2018-02-18T14:10:11.698Z,7.80
2018-02-18T14:12:40.122Z,7.93
2018-02-18T14:15:08.557Z,8.10
2018-02-18T14:17:37.049Z,8.00
2018-02-18T14:20:05.466Z,7.61
2018-02-18T14:22:33.895Z,7.69
2018-02-18T14:25:02.391Z,7.74
2018-02-18T14:27:30.848Z,7.89
2018-02-18T14:29:59.298Z,8.09
2018-02-18T14:32:27.774Z,8.11
2018-02-18T14:34:56.190Z,7.86
2018-02-18T14:37:24.635Z,8.02
2018-02-18T14:39:53.112Z,8.05
2018-02-18T14:42:33.280Z,7.83
2018-02-18T14:45:13.560Z,7.79
2018-02-18T14:47:53.756Z,7.70
2018-02-18T14:50:34.180Z,7.57
2018-02-18T14:53:14.383Z,7.21
2018-02-18T14:55:54.588Z,7.25
2018-02-18T14:58:23.023Z,7.39
2018-02-18T15:00:51.455Z,7.17
2018-02-18T15:03:19.935Z,7.06
2018-02-18T15:05:48.357Z,6.97
2018-02-18T15:08:16.766Z,7.00
2018-02-18T15:10:45.241Z,7.07
2018-02-18T15:13:13.690Z,7.14
2018-02-18T15:15:42.137Z,7.15
2018-02-18T15:18:10.607Z,6.94
2018-02-18T15:20:39.050Z,7.04
2018-02-18T15:23:07.505Z,7.02
2018-02-18T15:25:35.982Z,6.99
2018-02-18T15:28:04.428Z,6.91
2018-02-18T15:30:32.849Z,6.86
2018-02-18T15:33:01.337Z,6.66
2018-02-18T15:35:29.759Z,6.51
2018-02-18T15:37:58.198Z,6.31
2018-02-18T15:40:26.736Z,6.29
2018-02-18T15:42:55.173Z,6.16
2018-02-18T15:45:23.605Z,6.09
2018-02-18T15:47:52.087Z,6.00
2018-02-18T15:50:20.511Z,5.97
2018-02-18T15:52:48.949Z,5.98
2018-02-18T15:55:17.508Z,5.83
2018-02-18T15:57:45.919Z,5.87
2018-02-18T16:00:14.405Z,5.83
2018-02-18T16:02:42.893Z,5.82
2018-02-18T16:05:11.347Z,5.71
2018-02-18T16:07:39.786Z,5.72
2018-02-18T16:10:08.255Z,5.66
2018-02-18T16:12:36.699Z,5.58
2018-02-18T16:15:05.170Z,5.60
2018-02-18T16:17:33.652Z,5.54
2018-02-18T16:20:02.099Z,5.54
2018-02-18T16:22:30.526Z,5.51
2018-02-18T16:24:58.988Z,5.49
2018-02-18T16:27:27.428Z,5.43
2018-02-18T16:29:55.862Z,5.37
2018-02-18T16:32:24.334Z,5.28
2018-02-18T16:34:52.764Z,5.26
2018-02-18T16:37:21.182Z,5.20
2018-02-18T16:39:49.698Z,5.21
2018-02-18T16:42:18.590Z,5.24
2018-02-18T16:44:47.028Z,5.23
2018-02-18T16:47:15.500Z,5.28
2018-02-18T16:49:43.926Z,5.25
2018-02-18T16:52:12.359Z,5.21
2018-02-18T16:54:40.831Z,5.01
2018-02-18T16:57:09.346Z,4.99
2018-02-18T16:59:37.782Z,4.93
2018-02-18T17:02:06.282Z,4.84
2018-02-18T17:04:34.744Z,4.86
2018-02-18T17:07:03.217Z,4.89
2018-02-18T17:09:31.690Z,4.87
2018-02-18T17:12:00.145Z,4.83
2018-02-18T17:14:28.574Z,4.73
2018-02-18T17:16:57.083Z,4.66
2018-02-18T17:19:25.513Z,4.60
2018-02-18T17:21:53.961Z,4.55
2018-02-18T17:24:22.448Z,4.48
2018-02-18T17:26:50.892Z,4.54
2018-02-18T17:29:19.305Z,4.45
2018-02-18T17:31:47.817Z,4.43
2018-02-18T17:34:16.242Z,4.42
2018-02-18T17:36:44.685Z,4.41
2018-02-18T17:39:13.175Z,4.37
2018-02-18T17:41:41.603Z,4.36
2018-02-18T17:47:45.546Z,4.08
2018-02-18T17:50:13.985Z,4.14
2018-02-18T17:52:42.417Z,4.04
2018-02-18T17:55:10.886Z,3.98
2018-02-18T17:57:39.315Z,3.83
2018-02-18T18:00:07.761Z,3.77
2018-02-18T18:02:36.274Z,3.74
2018-02-18T18:05:04.716Z,3.77
2018-02-18T18:07:33.139Z,3.74
2018-02-18T18:10:01.612Z,3.65
2018-02-18T18:12:30.068Z,3.63
2018-02-18T18:14:58.502Z,3.54
2018-02-18T18:17:26.978Z,3.54
2018-02-18T18:19:55.431Z,3.69
2018-02-18T18:22:23.878Z,3.60
2018-02-18T18:24:54.430Z,3.56
2018-02-18T18:27:22.913Z,3.50
2018-02-18T18:29:51.356Z,3.53
2018-02-18T18:32:19.823Z,3.51
2018-02-18T18:34:48.253Z,3.58
2018-02-18T18:37:16.688Z,3.55
2018-02-18T18:39:45.173Z,3.53
2018-02-18T18:42:13.593Z,3.46
2018-02-18T18:44:42.030Z,3.46
2018-02-18T18:47:10.550Z,3.50
2018-02-18T18:49:39.006Z,3.50
2018-02-18T18:52:07.456Z,3.43
2018-02-18T18:54:35.929Z,3.38
2018-02-18T18:57:04.371Z,3.31
2018-02-18T18:59:32.825Z,3.30
2018-02-18T19:02:01.302Z,3.29
2018-02-18T19:04:29.748Z,3.27
2018-02-18T19:06:58.206Z,3.21
2018-02-18T19:09:26.717Z,3.17
2018-02-18T19:11:55.163Z,3.10
2018-02-18T19:14:23.599Z,3.10
2018-02-18T19:16:52.078Z,3.22
2018-02-18T19:19:20.524Z,3.12
2018-02-18T19:21:49.893Z,3.11
2018-02-18T19:24:18.403Z,3.02
2018-02-18T19:26:46.842Z,2.99
2018-02-18T19:29:16.290Z,2.97
2018-02-18T19:31:44.750Z,2.87
2018-02-18T19:34:13.196Z,2.87
2018-02-18T19:36:41.648Z,2.80
2018-02-18T19:39:10.137Z,2.82
2018-02-18T19:41:38.566Z,2.80
2018-02-18T19:44:07.029Z,2.81
2018-02-18T19:46:35.514Z,2.80
2018-02-18T19:49:04.006Z,2.76
2018-02-18T19:51:32.443Z,2.67
2018-02-18T19:54:00.927Z,2.69
2018-02-18T19:56:29.370Z,2.78
2018-02-18T19:58:57.805Z,2.61
2018-02-18T20:01:26.293Z,2.61
2018-02-18T20:03:54.741Z,2.52
2018-02-18T20:06:23.186Z,2.43
2018-02-18T20:08:51.665Z,2.40
2018-02-18T20:11:20.119Z,2.51
2018-02-18T20:13:48.588Z,2.48
2018-02-18T20:16:17.091Z,2.33
2018-02-18T20:18:45.527Z,2.38
2018-02-18T20:21:13.969Z,2.32
2018-02-18T20:23:42.447Z,2.30
2018-02-18T20:26:10.881Z,2.22
2018-02-18T20:28:39.315Z,2.28
2018-02-18T20:31:07.778Z,2.19
2018-02-18T20:33:36.215Z,2.21
2018-02-18T20:36:04.658Z,2.18
2018-02-18T20:38:33.127Z,2.30
2018-02-18T20:41:01.567Z,2.18
2018-02-18T20:43:30.004Z,2.19
2018-02-18T20:45:58.485Z,2.18
2018-02-18T20:48:26.931Z,2.13
2018-02-18T20:50:55.354Z,2.12
2018-02-18T20:53:23.819Z,2.14
2018-02-18T20:55:52.255Z,2.20
2018-02-18T20:58:20.701Z,2.18
2018-02-18T21:00:49.217Z,2.10
2018-02-18T21:03:17.671Z,2.07
2018-02-18T21:05:46.094Z,2.10
2018-02-18T21:08:14.592Z,2.14
2018-02-18T21:10:43.064Z,2.20
2018-02-18T21:13:11.536Z,2.15
2018-02-18T21:15:40.020Z,2.17
2018-02-18T21:18:08.463Z,2.06
2018-02-18T21:20:36.902Z,2.06
2018-02-18T21:23:05.383Z,2.03
2018-02-18T21:25:33.823Z,2.08
2018-02-18T21:28:02.283Z,2.11
2018-02-18T21:30:30.742Z,2.19
2018-02-18T21:32:59.179Z,2.21
2018-02-18T21:35:27.610Z,2.25
2018-02-18T21:37:56.098Z,2.13
2018-02-18T21:40:24.541Z,2.19
2018-02-18T21:42:52.977Z,2.12
2018-02-18T21:45:21.661Z,2.11
2018-02-18T21:47:50.112Z,2.12
2018-02-18T21:50:18.540Z,2.08
2018-02-18T21:52:47.011Z,2.10
2018-02-18T21:55:15.444Z,2.16
2018-02-18T21:57:43.889Z,2.11
2018-02-18T22:00:12.363Z,2.04
2018-02-18T22:02:40.796Z,2.08
2018-02-18T22:05:09.246Z,2.11
2018-02-18T22:07:37.750Z,2.21
2018-02-18T22:10:06.173Z,2.19
2018-02-18T22:12:34.656Z,2.18
2018-02-18T22:15:03.144Z,2.23
2018-02-18T22:17:31.591Z,2.19
2018-02-18T22:20:00.012Z,2.17
2018-02-18T22:22:28.488Z,2.15
2018-02-18T22:24:56.941Z,2.15
2018-02-18T22:27:25.386Z,2.11
2018-02-18T22:29:53.900Z,2.14
2018-02-18T22:32:22.342Z,2.24
2018-02-18T22:34:50.776Z,2.24
2018-02-18T22:37:19.282Z,2.27
2018-02-18T22:39:47.731Z,2.28
2018-02-18T22:42:16.165Z,2.23
2018-02-18T22:44:44.674Z,2.23
2018-02-18T22:47:13.135Z,2.16
2018-02-18T22:49:41.576Z,2.23
2018-02-18T22:52:10.060Z,2.19
2018-02-18T22:54:38.512Z,2.14
2018-02-18T22:57:06.980Z,2.13
2018-02-18T22:59:35.465Z,2.09
2018-02-18T23:02:03.903Z,2.32
2018-02-18T23:04:32.334Z,2.24
2018-02-18T23:07:07.275Z,2.19
2018-02-18T23:09:35.699Z,2.21
2018-02-18T23:12:04.200Z,2.15
2018-02-18T23:14:32.698Z,2.14
2018-02-18T23:17:01.142Z,2.13
2018-02-18T23:19:29.591Z,2.12
2018-02-18T23:21:58.079Z,2.20
2018-02-18T23:24:26.529Z,2.15
2018-02-18T23:26:54.996Z,2.12
2018-02-18T23:29:23.481Z,2.06
2018-02-18T23:31:51.930Z,2.06
2018-02-18T23:34:20.375Z,2.07
2018-02-18T23:36:48.849Z,2.07
2018-02-18T23:39:17.298Z,2.05
2018-02-18T23:41:45.722Z,1.99
2018-02-18T23:44:14.193Z,2.06
2018-02-18T23:46:42.624Z,2.26
2018-02-18T23:49:11.052Z,2.13
2018-02-18T23:51:39.530Z,2.05
2018-02-18T23:54:07.965Z,2.03
2018-02-18T23:56:36.401Z,2.00
2018-02-18T23:59:04.873Z,1.98
